Time;durP1;ratioP1;P1;durP2;ratioP2;P2;SDS_P1;SDS_P2;PMS_P1;PMS_P2;Temp;Humidity;BMP_temperature;BMP_pressure;BME280_temperature;BME280_humidity;BME280_pressure;Samples;Min_cycle;Max_cycle;Signal;HPM_P1;HPM_P2
2021/06/14 00:00:14;;;;;;;11.90;2.13;;;;;;;;;;5093982;28;20095;-38
2021/06/14 00:02:42;;;;;;;7.25;2.25;;;;;;;;;;5091453;28;20020;-38
2021/06/14 00:05:12;;;;;;;3.83;1.75;;;;;;;;;;5081436;28;20028;-38
2021/06/14 00:07:39;;;;;;;6.55;2.00;;;;;;;;;;5071791;28;20056;-38
2021/06/14 00:10:11;;;;;;;5.93;2.10;;;;;;;;;;5078096;28;20032;-38
2021/06/14 00:12:38;;;;;;;9.15;2.17;;;;;;;;;;5085872;28;20025;-38
2021/06/14 00:15:06;;;;;;;14.05;3.30;;;;;;;;;;5089493;28;20501;-38
2021/06/14 00:17:33;;;;;;;6.78;2.30;;;;;;;;;;5090992;28;20091;-38
2021/06/14 00:20:00;;;;;;;9.65;2.08;;;;;;;;;;5081710;28;20028;-39
2021/06/14 00:22:27;;;;;;;9.30;2.10;;;;;;;;;;5070806;28;20023;-38
2021/06/14 00:24:54;;;;;;;9.48;1.88;;;;;;;;;;5071628;28;20090;-37
2021/06/14 00:27:22;;;;;;;4.93;2.10;;;;;;;;;;5079149;28;20364;-38
2021/06/14 00:29:49;;;;;;;14.88;2.78;;;;;;;;;;5075678;28;20096;-38
2021/06/14 00:32:16;;;;;;;10.52;2.17;;;;;;;;;;5086096;28;20052;-38
2021/06/14 00:34:43;;;;;;;14.32;2.38;;;;;;;;;;5079462;28;20468;-37
2021/06/14 00:37:10;;;;;;;7.18;1.85;;;;;;;;;;5074437;28;20020;-37
2021/06/14 00:39:38;;;;;;;8.60;2.03;;;;;;;;;;5076492;28;20021;-37
2021/06/14 00:42:06;;;;;;;5.00;2.25;;;;;;;;;;5088626;28;20016;-38
2021/06/14 00:44:33;;;;;;;12.35;2.60;;;;;;;;;;5089470;28;20032;-38
2021/06/14 00:47:00;;;;;;;13.13;4.78;;;;;;;;;;5090795;28;20495;-38
2021/06/14 00:49:27;;;;;;;12.07;5.93;;;;;;;;;;5085907;28;20085;-37
2021/06/14 00:51:54;;;;;;;15.20;7.65;;;;;;;;;;5090461;28;20052;-38
2021/06/14 00:54:21;;;;;;;21.90;9.57;;;;;;;;;;5090531;28;20475;-37
2021/06/14 00:56:48;;;;;;;19.13;9.98;;;;;;;;;;5088251;28;20031;-38
2021/06/14 00:59:15;;;;;;;24.42;11.18;;;;;;;;;;5085422;28;20129;-37
2021/06/14 01:01:42;;;;;;;22.23;11.35;;;;;;;;;;5079635;28;20133;-37
2021/06/14 01:04:10;;;;;;;19.20;10.60;;;;;;;;;;5072103;28;20399;-37
2021/06/14 01:06:37;;;;;;;28.90;11.52;;;;;;;;;;5092639;28;20052;-36
2021/06/14 01:09:04;;;;;;;20.92;11.88;;;;;;;;;;5093493;28;20054;-38
2021/06/14 01:11:51;;;;;;;26.35;11.65;;;;;;;;;;5099944;28;20119;-38
2021/06/14 01:14:36;;;;;;;22.17;10.75;;;;;;;;;;5093956;28;20028;-38
2021/06/14 01:17:16;;;;;;;20.98;10.73;;;;;;;;;;5083734;28;20032;-38
2021/06/14 01:20:01;;;;;;;29.60;10.35;;;;;;;;;;5092392;28;20089;-37
2021/06/14 01:22:46;;;;;;;25.00;10.43;;;;;;;;;;5082309;28;20028;-38
2021/06/14 01:25:32;;;;;;;21.90;10.27;;;;;;;;;;5082578;28;20043;-38
2021/06/14 01:28:01;;;;;;;31.38;10.98;;;;;;;;;;5094445;28;20479;-38
2021/06/14 01:30:31;;;;;;;19.15;9.88;;;;;;;;;;5094484;28;20374;-38
2021/06/14 01:32:58;;;;;;;23.70;10.00;;;;;;;;;;5094488;28;20020;-38
2021/06/14 01:35:46;;;;;;;35.30;10.48;;;;;;;;;;5077365;28;20049;-40
2021/06/14 01:38:14;;;;;;;24.60;10.00;;;;;;;;;;5074441;28;20021;-37
2021/06/14 01:40:41;;;;;;;23.98;9.65;;;;;;;;;;5073147;28;20017;-39
2021/06/14 01:43:10;;;;;;;27.83;9.85;;;;;;;;;;5074762;28;20020;-38
2021/06/14 01:45:40;;;;;;;21.80;9.30;;;;;;;;;;5084388;28;20039;-39
2021/06/14 01:48:08;;;;;;;28.48;9.00;;;;;;;;;;5073657;28;20030;-39
2021/06/14 01:50:36;;;;;;;26.00;9.32;;;;;;;;;;5089472;28;20052;-40
2021/06/14 01:53:03;;;;;;;21.58;9.02;;;;;;;;;;5093332;28;20485;-39
2021/06/14 01:55:31;;;;;;;24.67;8.73;;;;;;;;;;5092183;28;20394;-39
2021/06/14 01:57:58;;;;;;;22.27;8.93;;;;;;;;;;5089916;28;20115;-37
2021/06/14 02:00:26;;;;;;;19.08;9.05;;;;;;;;;;5082628;28;20081;-39
2021/06/14 02:02:54;;;;;;;18.67;7.97;;;;;;;;;;5091986;28;20542;-39
2021/06/14 02:05:24;;;;;;;24.17;8.50;;;;;;;;;;5093066;28;20044;-39
2021/06/14 02:07:52;;;;;;;25.27;8.52;;;;;;;;;;5092885;28;20074;-38
2021/06/14 02:10:20;;;;;;;19.33;7.25;;;;;;;;;;5093359;28;20019;-40
2021/06/14 02:12:47;;;;;;;22.33;7.82;;;;;;;;;;5093982;28;20425;-39
2021/06/14 02:15:16;;;;;;;13.60;6.75;;;;;;;;;;5072088;28;20028;-40
2021/06/14 02:17:44;;;;;;;16.17;7.53;;;;;;;;;;5088574;28;20027;-40
2021/06/14 02:20:11;;;;;;;17.33;7.68;;;;;;;;;;5090034;28;20374;-38
2021/06/14 02:22:39;;;;;;;19.05;7.28;;;;;;;;;;5099982;27;20494;-38
2021/06/14 02:25:07;;;;;;;16.40;6.65;;;;;;;;;;5091695;28;20501;-40
2021/06/14 02:27:35;;;;;;;21.70;7.13;;;;;;;;;;5091918;28;20084;-39
2021/06/14 02:30:04;;;;;;;17.05;6.15;;;;;;;;;;5090771;28;20103;-38
2021/06/14 02:32:32;;;;;;;17.60;6.18;;;;;;;;;;5090690;28;20033;-38
2021/06/14 02:35:00;;;;;;;20.25;6.45;;;;;;;;;;5090069;28;20082;-38
2021/06/14 02:37:27;;;;;;;15.82;6.50;;;;;;;;;;5092897;28;20015;-39
2021/06/14 02:39:55;;;;;;;16.45;6.10;;;;;;;;;;5091585;28;20062;-39
2021/06/14 02:42:22;;;;;;;15.23;6.25;;;;;;;;;;5120913;27;20412;-39
2021/06/14 02:44:49;;;;;;;13.70;6.25;;;;;;;;;;5085520;28;20450;-40
2021/06/14 02:47:17;;;;;;;18.73;6.55;;;;;;;;;;5077658;28;20029;-39
2021/06/14 02:49:44;;;;;;;15.95;5.97;;;;;;;;;;5092138;28;20081;-40
2021/06/14 02:52:13;;;;;;;13.48;5.93;;;;;;;;;;5089537;28;20495;-42
2021/06/14 02:54:46;;;;;;;10.70;5.15;;;;;;;;;;5092004;28;20020;-44
2021/06/14 02:57:14;;;;;;;15.15;5.55;;;;;;;;;;5093284;28;20020;-44
2021/06/14 02:59:41;;;;;;;11.65;5.28;;;;;;;;;;5092145;28;20028;-42
2021/06/14 03:02:09;;;;;;;12.48;5.32;;;;;;;;;;5093086;28;20012;-40
2021/06/14 03:04:36;;;;;;;11.52;4.90;;;;;;;;;;5093153;28;20028;-40
2021/06/14 03:07:03;;;;;;;13.98;5.40;;;;;;;;;;5092791;28;20056;-41
2021/06/14 03:09:31;;;;;;;14.77;5.75;;;;;;;;;;5092823;28;20024;-40
2021/06/14 03:11:59;;;;;;;12.65;5.55;;;;;;;;;;5093065;28;20398;-41
2021/06/14 03:14:27;;;;;;;11.38;5.15;;;;;;;;;;5093051;28;20077;-41
2021/06/14 03:16:54;;;;;;;11.15;5.05;;;;;;;;;;5093139;28;20020;-42
2021/06/14 03:19:24;;;;;;;12.80;5.10;;;;;;;;;;5091908;28;20028;-43
2021/06/14 03:21:51;;;;;;;9.55;4.50;;;;;;;;;;5093010;28;20016;-44
2021/06/14 03:24:18;;;;;;;11.27;5.00;;;;;;;;;;5093460;28;20103;-44
2021/06/14 03:26:47;;;;;;;8.50;4.88;;;;;;;;;;5092394;28;20506;-42
2021/06/14 03:29:23;;;;;;;8.85;4.63;;;;;;;;;;5091887;28;20517;-41
2021/06/14 03:31:50;;;;;;;9.43;4.53;;;;;;;;;;5093308;28;20031;-41
2021/06/14 03:34:18;;;;;;;11.25;4.95;;;;;;;;;;5093328;28;20494;-41
2021/06/14 03:36:46;;;;;;;11.85;4.60;;;;;;;;;;5093118;28;20046;-42
2021/06/14 03:39:15;;;;;;;9.80;4.28;;;;;;;;;;5092934;28;20024;-40
2021/06/14 03:41:47;;;;;;;13.70;4.50;;;;;;;;;;5093237;28;20531;-42
2021/06/14 03:44:14;;;;;;;8.38;4.30;;;;;;;;;;5092901;28;20031;-41
2021/06/14 03:46:41;;;;;;;10.90;4.60;;;;;;;;;;5092842;28;20040;-43
2021/06/14 03:49:08;;;;;;;8.93;4.03;;;;;;;;;;5092877;28;20371;-42
2021/06/14 03:51:41;;;;;;;9.32;4.15;;;;;;;;;;5083424;28;20036;-39
2021/06/14 03:54:08;;;;;;;7.65;3.53;;;;;;;;;;5092267;28;20544;-41
2021/06/14 03:56:36;;;;;;;8.60;4.30;;;;;;;;;;5092162;28;20023;-42
2021/06/14 03:59:04;;;;;;;7.90;3.95;;;;;;;;;;5091953;28;20545;-42
2021/06/14 04:01:31;;;;;;;7.28;3.63;;;;;;;;;;5087343;28;20035;-42
2021/06/14 04:06:25;;;;;;;9.20;4.00;;;;;;;;;;5091926;28;20036;-41
2021/06/14 04:08:53;;;;;;;6.93;3.60;;;;;;;;;;5090565;28;20100;-42
2021/06/14 04:11:20;;;;;;;8.98;4.22;;;;;;;;;;5097672;28;20011;-41
2021/06/14 04:13:50;;;;;;;9.55;4.22;;;;;;;;;;5112953;28;20347;-42
2021/06/14 04:16:18;;;;;;;7.45;3.50;;;;;;;;;;5112282;28;20023;-42
2021/06/14 04:18:45;;;;;;;7.07;3.60;;;;;;;;;;5112026;28;20377;-40
2021/06/14 04:21:12;;;;;;;7.22;3.50;;;;;;;;;;5107494;28;20032;-41
2021/06/14 04:23:42;;;;;;;5.78;3.17;;;;;;;;;;5112598;28;20127;-42
2021/06/14 04:26:10;;;;;;;7.38;3.33;;;;;;;;;;5112306;28;20043;-42
2021/06/14 04:28:38;;;;;;;6.28;3.28;;;;;;;;;;5111990;28;20047;-40
2021/06/14 04:31:06;;;;;;;5.55;3.28;;;;;;;;;;5106881;28;20120;-41
2021/06/14 04:33:33;;;;;;;5.93;3.17;;;;;;;;;;5091402;28;20012;-40
2021/06/14 04:36:02;;;;;;;6.88;2.80;;;;;;;;;;5091943;28;20016;-41
2021/06/14 04:38:29;;;;;;;5.72;3.20;;;;;;;;;;5094023;28;20092;-41
2021/06/14 04:40:56;;;;;;;5.32;2.95;;;;;;;;;;5094408;28;20024;-40
2021/06/14 04:43:24;;;;;;;5.40;3.40;;;;;;;;;;5092608;28;20487;-41
2021/06/14 04:45:51;;;;;;;8.43;3.33;;;;;;;;;;5095943;28;20157;-41
2021/06/14 04:48:18;;;;;;;6.05;2.95;;;;;;;;;;5095516;28;20024;-40
2021/06/14 04:50:45;;;;;;;5.10;2.70;;;;;;;;;;5093939;28;20088;-41
2021/06/14 04:53:12;;;;;;;6.10;3.15;;;;;;;;;;5091079;28;20061;-40
2021/06/14 04:55:39;;;;;;;5.53;3.13;;;;;;;;;;5095539;28;20095;-42
2021/06/14 04:58:06;;;;;;;5.63;2.95;;;;;;;;;;5095541;28;20024;-42
2021/06/14 05:00:34;;;;;;;6.05;3.17;;;;;;;;;;5095275;28;20016;-41
2021/06/14 05:03:01;;;;;;;7.82;3.22;;;;;;;;;;5090819;28;20020;-41
2021/06/14 05:05:28;;;;;;;5.80;3.00;;;;;;;;;;5095546;28;20036;-39
2021/06/14 05:07:55;;;;;;;6.82;3.10;;;;;;;;;;5095394;28;20377;-41
2021/06/14 05:10:22;;;;;;;4.95;2.83;;;;;;;;;;5094794;28;20047;-41
2021/06/14 05:12:49;;;;;;;4.88;2.58;;;;;;;;;;5090619;28;20081;-41
2021/06/14 05:15:17;;;;;;;5.35;2.70;;;;;;;;;;5095726;28;20102;-41
2021/06/14 05:17:45;;;;;;;5.82;2.97;;;;;;;;;;5095146;28;20070;-41
2021/06/14 05:20:14;;;;;;;5.13;2.90;;;;;;;;;;5094656;28;20043;-41
2021/06/14 05:22:40;;;;;;;4.55;2.67;;;;;;;;;;5090540;28;20119;-41
2021/06/14 05:25:08;;;;;;;7.57;2.80;;;;;;;;;;5095213;28;20036;-39
2021/06/14 05:27:35;;;;;;;5.35;2.70;;;;;;;;;;5094964;28;20359;-41
2021/06/14 05:30:02;;;;;;;6.10;2.83;;;;;;;;;;5095100;28;20024;-41
2021/06/14 05:32:29;;;;;;;4.95;2.67;;;;;;;;;;5091232;28;20024;-40
2021/06/14 05:34:56;;;;;;;4.55;2.45;;;;;;;;;;5093940;28;20020;-40
2021/06/14 05:37:23;;;;;;;4.80;2.42;;;;;;;;;;5094967;28;20081;-41
2021/06/14 05:39:50;;;;;;;5.38;3.05;;;;;;;;;;5094275;28;20702;-41
2021/06/14 05:42:17;;;;;;;5.40;2.20;;;;;;;;;;5094136;28;20064;-39
2021/06/14 05:44:44;;;;;;;6.03;2.25;;;;;;;;;;5090909;28;20062;-42
2021/06/14 05:47:11;;;;;;;5.85;2.70;;;;;;;;;;5094675;28;20043;-43
2021/06/14 05:49:38;;;;;;;5.40;2.40;;;;;;;;;;5093542;28;20020;-42
2021/06/14 05:52:05;;;;;;;4.53;2.35;;;;;;;;;;5094299;28;20079;-42
2021/06/14 05:54:32;;;;;;;4.97;2.50;;;;;;;;;;5089799;28;20043;-42
2021/06/14 05:56:59;;;;;;;4.28;2.30;;;;;;;;;;5094709;28;20044;-42
2021/06/14 05:59:26;;;;;;;3.45;2.42;;;;;;;;;;5094487;28;20024;-42
2021/06/14 06:01:53;;;;;;;5.22;2.05;;;;;;;;;;5094485;28;20031;-42
2021/06/14 06:04:20;;;;;;;3.00;1.90;;;;;;;;;;5089692;28;20020;-42
2021/06/14 06:06:47;;;;;;;4.60;2.33;;;;;;;;;;5094384;28;20036;-41
2021/06/14 06:09:14;;;;;;;3.83;2.13;;;;;;;;;;5094284;28;20020;-42
2021/06/14 06:11:42;;;;;;;3.60;1.90;;;;;;;;;;5094157;28;20023;-42
2021/06/14 06:14:09;;;;;;;4.75;2.20;;;;;;;;;;5089315;28;20028;-42
2021/06/14 06:16:36;;;;;;;2.65;1.83;;;;;;;;;;5094388;28;20547;-42
2021/06/14 06:19:03;;;;;;;3.03;1.73;;;;;;;;;;5093834;28;20024;-42
2021/06/14 06:21:30;;;;;;;3.15;1.92;;;;;;;;;;5094026;28;20031;-41
2021/06/14 06:23:57;;;;;;;4.82;1.98;;;;;;;;;;5089114;28;20043;-42
2021/06/14 06:26:24;;;;;;;5.88;2.15;;;;;;;;;;5094107;28;20361;-40
2021/06/14 06:28:51;;;;;;;3.80;2.00;;;;;;;;;;5093189;28;20032;-42
2021/06/14 06:31:18;;;;;;;4.05;2.17;;;;;;;;;;5093889;28;20067;-41
2021/06/14 06:33:46;;;;;;;5.50;2.17;;;;;;;;;;5091263;28;20380;-39
2021/06/14 06:36:13;;;;;;;2.95;1.95;;;;;;;;;;5091757;28;20077;-42
2021/06/14 06:38:40;;;;;;;4.05;1.88;;;;;;;;;;5093564;28;20069;-41
2021/06/14 06:41:08;;;;;;;2.80;1.90;;;;;;;;;;5093803;28;20097;-41
2021/06/14 06:43:35;;;;;;;3.22;1.90;;;;;;;;;;5093643;28;20016;-41
2021/06/14 06:46:03;;;;;;;3.67;1.77;;;;;;;;;;5104765;28;20539;-42
2021/06/14 06:48:30;;;;;;;3.08;1.70;;;;;;;;;;5113805;28;20034;-42
2021/06/14 06:50:57;;;;;;;3.35;1.83;;;;;;;;;;5113475;28;20051;-42
2021/06/14 06:53:26;;;;;;;2.10;1.60;;;;;;;;;;5113668;28;20024;-41
2021/06/14 06:55:54;;;;;;;3.30;1.75;;;;;;;;;;5108943;28;20028;-41
2021/06/14 06:58:21;;;;;;;3.55;1.65;;;;;;;;;;5113755;28;20020;-42
2021/06/14 07:00:48;;;;;;;4.55;1.58;;;;;;;;;;5129540;27;20115;-41
2021/06/14 07:03:19;;;;;;;3.17;1.85;;;;;;;;;;5113514;28;20072;-41
2021/06/14 07:05:47;;;;;;;3.65;1.90;;;;;;;;;;5108535;28;20111;-39
2021/06/14 07:08:14;;;;;;;2.53;1.65;;;;;;;;;;5113315;28;20546;-40
2021/06/14 07:10:41;;;;;;;2.70;1.40;;;;;;;;;;5113605;28;20045;-41
2021/06/14 07:13:08;;;;;;;3.15;1.70;;;;;;;;;;5113315;28;20020;-41
2021/06/14 07:15:35;;;;;;;4.22;2.15;;;;;;;;;;5104211;28;20065;-41
2021/06/14 07:18:03;;;;;;;3.35;1.77;;;;;;;;;;5093135;28;20065;-40
2021/06/14 07:20:30;;;;;;;3.53;1.45;;;;;;;;;;5092770;28;20016;-41
2021/06/14 07:22:57;;;;;;;2.25;1.25;;;;;;;;;;5092916;28;20020;-41
2021/06/14 07:25:24;;;;;;;3.67;1.90;;;;;;;;;;5093173;28;20510;-41
2021/06/14 07:27:51;;;;;;;5.45;1.88;;;;;;;;;;5113335;28;20379;-42
2021/06/14 07:30:19;;;;;;;3.45;1.70;;;;;;;;;;5112936;28;20008;-41
2021/06/14 07:32:46;;;;;;;3.05;1.88;;;;;;;;;;5113087;28;20096;-41
2021/06/14 07:35:13;;;;;;;2.13;1.55;;;;;;;;;;5110379;28;20024;-40
2021/06/14 07:37:40;;;;;;;2.03;1.10;;;;;;;;;;5110877;28;20027;-42
2021/06/14 07:40:08;;;;;;;3.30;1.60;;;;;;;;;;5107143;28;20023;-41
2021/06/14 07:42:35;;;;;;;2.92;1.65;;;;;;;;;;5092339;28;20065;-42
2021/06/14 07:45:02;;;;;;;4.30;1.58;;;;;;;;;;5092231;28;20375;-42
2021/06/14 07:47:29;;;;;;;3.47;1.50;;;;;;;;;;5105557;28;20100;-42
2021/06/14 07:49:56;;;;;;;2.22;1.25;;;;;;;;;;5112073;28;20044;-43
2021/06/14 07:52:23;;;;;;;3.33;1.58;;;;;;;;;;5112857;28;20045;-41
2021/06/14 07:54:50;;;;;;;3.20;1.23;;;;;;;;;;5112859;28;20023;-42
2021/06/14 07:57:17;;;;;;;3.78;1.30;;;;;;;;;;5107945;28;20020;-41
2021/06/14 07:59:44;;;;;;;2.72;1.48;;;;;;;;;;5112633;28;20023;-40
2021/06/14 08:02:12;;;;;;;3.95;1.23;;;;;;;;;;5112712;28;20020;-42
2021/06/14 08:04:39;;;;;;;4.10;1.40;;;;;;;;;;5112335;28;20020;-43
2021/06/14 08:07:06;;;;;;;3.05;1.40;;;;;;;;;;5107639;28;20032;-41
2021/06/14 08:09:33;;;;;;;2.92;1.38;;;;;;;;;;5112422;28;20011;-42
2021/06/14 08:12:02;;;;;;;3.03;1.20;;;;;;;;;;5112354;27;20382;-40
2021/06/14 08:14:29;;;;;;;2.13;1.10;;;;;;;;;;5112204;28;20031;-41
2021/06/14 08:16:56;;;;;;;2.95;1.23;;;;;;;;;;5107669;28;20027;-41
2021/06/14 08:19:35;;;;;;;1.80;1.23;;;;;;;;;;5112141;28;20136;-41
2021/06/14 08:27:37;;;;;;;2.28;0.90;;;;;;;;;;5107768;28;20086;-42
2021/06/14 08:30:06;;;;;;;2.72;1.10;;;;;;;;;;5112089;28;20467;-40
2021/06/14 08:32:33;;;;;;;3.17;1.30;;;;;;;;;;5128318;28;20534;-41
2021/06/14 08:35:00;;;;;;;2.60;1.30;;;;;;;;;;5112312;28;20016;-42
2021/06/14 08:37:28;;;;;;;2.20;1.20;;;;;;;;;;5107303;28;20028;-40
2021/06/14 08:39:55;;;;;;;2.38;1.08;;;;;;;;;;5111965;28;20015;-41
2021/06/14 08:42:22;;;;;;;2.70;1.10;;;;;;;;;;5112284;28;20019;-41
2021/06/14 08:44:49;;;;;;;2.13;1.00;;;;;;;;;;5112071;28;20026;-42
2021/06/14 08:47:17;;;;;;;3.08;1.20;;;;;;;;;;5107180;28;20078;-39
2021/06/14 08:49:45;;;;;;;3.17;1.20;;;;;;;;;;5127755;28;20036;-39
2021/06/14 08:52:12;;;;;;;2.25;0.88;;;;;;;;;;5111833;28;20510;-41
2021/06/14 08:54:43;;;;;;;2.13;1.00;;;;;;;;;;5112044;28;20040;-41
2021/06/14 08:57:13;;;;;;;2.50;0.80;;;;;;;;;;5109675;28;20030;-40
2021/06/14 08:59:41;;;;;;;1.48;1.00;;;;;;;;;;5109780;28;20554;-41
2021/06/14 09:02:08;;;;;;;2.55;0.75;;;;;;;;;;5112053;28;20031;-41
2021/06/14 09:04:36;;;;;;;2.28;0.95;;;;;;;;;;5112052;28;20500;-40
2021/06/14 09:07:03;;;;;;;2.33;0.90;;;;;;;;;;5111783;28;20119;-40
2021/06/14 09:09:31;;;;;;;3.25;1.00;;;;;;;;;;5106950;28;20016;-40
2021/06/14 09:12:01;;;;;;;2.85;1.02;;;;;;;;;;5111799;28;20472;-41
2021/06/14 09:14:29;;;;;;;1.95;1.10;;;;;;;;;;5112042;28;20026;-41
2021/06/14 09:16:59;;;;;;;1.48;1.02;;;;;;;;;;5111825;28;20081;-41
2021/06/14 09:19:31;;;;;;;1.08;0.70;;;;;;;;;;5089629;28;20020;-41
2021/06/14 09:22:11;;;;;;;2.67;1.00;;;;;;;;;;5091442;28;20046;-41
2021/06/14 09:24:38;;;;;;;2.25;0.80;;;;;;;;;;5092161;28;20031;-41
2021/06/14 09:27:05;;;;;;;1.73;1.00;;;;;;;;;;5094886;28;20032;-41
2021/06/14 09:29:32;;;;;;;3.65;1.10;;;;;;;;;;5090131;28;20047;-41
2021/06/14 09:32:00;;;;;;;2.10;0.88;;;;;;;;;;5094946;28;20024;-41
2021/06/14 09:34:35;;;;;;;1.30;0.70;;;;;;;;;;5094966;28;20030;-41
2021/06/14 09:37:03;;;;;;;1.52;0.70;;;;;;;;;;5094743;28;20039;-42
2021/06/14 09:39:41;;;;;;;1.08;0.70;;;;;;;;;;5090090;28;20642;-41
2021/06/14 09:42:21;;;;;;;2.05;0.80;;;;;;;;;;5094843;28;20510;-41
2021/06/14 09:44:50;;;;;;;2.08;0.90;;;;;;;;;;5094900;28;20028;-41
2021/06/14 09:47:17;;;;;;;2.05;0.65;;;;;;;;;;5094493;28;20063;-41
2021/06/14 09:50:16;;;;;;;1.70;0.90;;;;;;;;;;5089376;28;20020;-40
2021/06/14 09:52:43;;;;;;;2.72;0.95;;;;;;;;;;5060687;28;20044;-40
2021/06/14 09:55:15;;;;;;;1.38;1.02;;;;;;;;;;5094477;28;20395;-41
2021/06/14 09:57:42;;;;;;;1.85;0.90;;;;;;;;;;5094660;28;20050;-41
2021/06/14 10:00:10;;;;;;;1.55;0.75;;;;;;;;;;5089253;28;20012;-41
2021/06/14 10:02:37;;;;;;;2.22;0.82;;;;;;;;;;5094559;28;20024;-41
2021/06/14 10:05:21;;;;;;;2.35;0.90;;;;;;;;;;5094523;28;20031;-41
2021/06/14 10:07:49;;;;;;;1.75;0.95;;;;;;;;;;5094385;28;20020;-41
2021/06/14 10:10:22;;;;;;;2.42;0.75;;;;;;;;;;5089182;28;20023;-41
2021/06/14 10:12:50;;;;;;;1.85;0.70;;;;;;;;;;5094035;28;20037;-41
2021/06/14 10:15:18;;;;;;;1.80;0.77;;;;;;;;;;5094273;28;20042;-41
2021/06/14 10:17:47;;;;;;;2.33;0.80;;;;;;;;;;5094026;28;20024;-42
2021/06/14 10:20:16;;;;;;;2.70;0.88;;;;;;;;;;5088993;28;20024;-41
2021/06/14 10:22:43;;;;;;;1.35;0.70;;;;;;;;;;5093801;28;20020;-42
2021/06/14 10:25:11;;;;;;;1.83;0.95;;;;;;;;;;5094207;28;20103;-41
2021/06/14 10:27:38;;;;;;;1.70;0.80;;;;;;;;;;5093624;28;20550;-41
2021/06/14 10:30:09;;;;;;;1.80;0.73;;;;;;;;;;5088754;28;20012;-41
2021/06/14 10:32:37;;;;;;;2.42;0.88;;;;;;;;;;5093883;28;20024;-41
2021/06/14 10:35:05;;;;;;;1.95;0.73;;;;;;;;;;5093713;28;20889;-42
2021/06/14 10:37:34;;;;;;;1.75;0.80;;;;;;;;;;5093535;28;20032;-41
2021/06/14 10:40:02;;;;;;;1.98;0.90;;;;;;;;;;5088480;28;20078;-40
2021/06/14 10:42:29;;;;;;;1.27;0.70;;;;;;;;;;5093723;28;20051;-42
2021/06/14 10:44:58;;;;;;;1.23;0.70;;;;;;;;;;5093966;28;20020;-41
2021/06/14 10:47:25;;;;;;;1.77;0.60;;;;;;;;;;5093720;28;20036;-40
2021/06/14 10:49:55;;;;;;;1.15;0.70;;;;;;;;;;5090426;28;20032;-38
2021/06/14 10:52:22;;;;;;;1.48;0.55;;;;;;;;;;5091697;28;20038;-41
2021/06/14 10:54:49;;;;;;;2.08;0.75;;;;;;;;;;5093526;28;20016;-42
2021/06/14 10:57:16;;;;;;;2.78;0.75;;;;;;;;;;5093644;28;20065;-38
2021/06/14 10:59:45;;;;;;;1.35;0.80;;;;;;;;;;5092985;28;20026;-38
2021/06/14 11:02:22;;;;;;;1.05;0.70;;;;;;;;;;5088560;28;20053;-39
2021/06/14 11:04:49;;;;;;;1.05;0.50;;;;;;;;;;5093401;28;20024;-38
2021/06/14 11:07:17;;;;;;;1.63;0.65;;;;;;;;;;5093348;28;20116;-38
2021/06/14 11:09:45;;;;;;;2.03;0.80;;;;;;;;;;5092844;28;20020;-40
2021/06/14 11:12:29;;;;;;;1.75;0.80;;;;;;;;;;5088076;28;20031;-41
2021/06/14 11:14:56;;;;;;;1.60;0.57;;;;;;;;;;5093270;28;20027;-40
2021/06/14 11:17:23;;;;;;;1.38;0.70;;;;;;;;;;5092112;28;20020;-41
2021/06/14 11:19:51;;;;;;;2.47;0.68;;;;;;;;;;5092676;28;20476;-40
2021/06/14 11:22:20;;;;;;;2.22;0.60;;;;;;;;;;5087865;28;20024;-40
2021/06/14 11:24:48;;;;;;;1.92;0.60;;;;;;;;;;5093245;28;20024;-39
2021/06/14 11:27:15;;;;;;;1.65;0.73;;;;;;;;;;5092985;28;20032;-41
2021/06/14 11:29:43;;;;;;;1.13;0.70;;;;;;;;;;5092456;28;20032;-40
2021/06/14 11:32:17;;;;;;;1.15;0.68;;;;;;;;;;5099231;28;20024;-42
2021/06/14 11:34:45;;;;;;;1.40;0.60;;;;;;;;;;5113213;28;20026;-41
2021/06/14 11:37:12;;;;;;;1.70;0.70;;;;;;;;;;5113236;28;20024;-39
2021/06/14 11:39:39;;;;;;;1.13;0.60;;;;;;;;;;5112598;28;20051;-42
2021/06/14 11:42:18;;;;;;;2.10;0.73;;;;;;;;;;5106819;28;20024;-40
2021/06/14 11:44:55;;;;;;;2.40;0.47;;;;;;;;;;5113096;27;20031;-40
2021/06/14 11:47:28;;;;;;;2.10;0.50;;;;;;;;;;5112126;28;20389;-40
2021/06/14 11:49:59;;;;;;;1.02;0.50;;;;;;;;;;5112105;28;20420;-41
2021/06/14 11:52:31;;;;;;;2.33;0.57;;;;;;;;;;5095393;28;20036;-41
2021/06/14 11:55:00;;;;;;;0.95;0.52;;;;;;;;;;5092700;28;20020;-40
2021/06/14 11:57:28;;;;;;;1.17;0.55;;;;;;;;;;5092439;28;20024;-41
2021/06/14 11:59:55;;;;;;;1.15;0.73;;;;;;;;;;5091825;28;20017;-40
2021/06/14 12:02:26;;;;;;;0.82;0.50;;;;;;;;;;5087468;28;20487;-41
2021/06/14 12:04:58;;;;;;;0.65;0.52;;;;;;;;;;5085313;28;20028;-41
2021/06/14 12:07:25;;;;;;;;;;;;;;;;;;5078807;28;20056;-41
2021/06/14 12:09:52;;;;;;;1.48;0.70;;;;;;;;;;5110073;28;19903;-40
2021/06/14 12:12:19;;;;;;;2.10;0.93;;;;;;;;;;5112485;28;20024;-42
2021/06/14 12:14:55;;;;;;;1.08;0.50;;;;;;;;;;5111793;28;20110;-40
2021/06/14 12:17:26;;;;;;;1.77;0.60;;;;;;;;;;5112549;28;20048;-41
2021/06/14 12:19:54;;;;;;;2.50;0.47;;;;;;;;;;5111920;28;20030;-42
2021/06/14 12:22:22;;;;;;;1.38;0.50;;;;;;;;;;5128101;27;20424;-41
2021/06/14 12:24:49;;;;;;;2.60;0.70;;;;;;;;;;5111660;28;20020;-39
2021/06/14 12:27:16;;;;;;;0.93;0.52;;;;;;;;;;5112255;28;20505;-41
2021/06/14 12:29:43;;;;;;;1.02;0.52;;;;;;;;;;5106953;28;20020;-41
2021/06/14 12:32:10;;;;;;;1.27;0.40;;;;;;;;;;5091490;28;20431;-41
2021/06/14 12:34:40;;;;;;;1.27;0.30;;;;;;;;;;5091050;28;20077;-40
2021/06/14 12:37:13;;;;;;;1.08;0.43;;;;;;;;;;5091699;28;20103;-41
2021/06/14 12:39:41;;;;;;;1.73;0.50;;;;;;;;;;5090072;28;20035;-40
2021/06/14 12:42:20;;;;;;;1.05;0.47;;;;;;;;;;5090572;28;20017;-36
2021/06/14 12:44:54;;;;;;;2.28;0.75;;;;;;;;;;5087712;28;20051;-43
2021/06/14 12:47:22;;;;;;;4.13;0.60;;;;;;;;;;5090841;28;20024;-42
2021/06/14 12:49:50;;;;;;;1.83;0.50;;;;;;;;;;5088673;28;20432;-41
2021/06/14 12:52:21;;;;;;;3.33;0.70;;;;;;;;;;5089851;28;20051;-40
2021/06/14 12:54:48;;;;;;;2.45;0.95;;;;;;;;;;5091034;28;20035;-40
2021/06/14 12:57:15;;;;;;;1.63;0.60;;;;;;;;;;5090691;28;20541;-39
2021/06/14 12:59:44;;;;;;;2.53;0.70;;;;;;;;;;5093784;28;20472;-41
2021/06/14 13:02:15;;;;;;;1.77;0.63;;;;;;;;;;5091775;28;20020;-36
2021/06/14 13:04:45;;;;;;;4.03;0.60;;;;;;;;;;5094635;28;20112;-43
2021/06/14 13:07:13;;;;;;;2.53;0.40;;;;;;;;;;5092523;28;20039;-39
2021/06/14 13:09:48;;;;;;;1.85;0.60;;;;;;;;;;5094565;28;20367;-43
2021/06/14 13:12:29;;;;;;;2.80;0.55;;;;;;;;;;5094493;28;20539;-41
2021/06/14 13:15:16;;;;;;;4.82;0.63;;;;;;;;;;5092410;28;20027;-48
2021/06/14 13:17:44;;;;;;;1.33;0.55;;;;;;;;;;5092685;28;20039;-44
2021/06/14 13:20:18;;;;;;;1.02;0.47;;;;;;;;;;5093157;28;20051;-44
2021/06/14 13:22:45;;;;;;;3.15;0.70;;;;;;;;;;5093844;28;20031;-38
2021/06/14 13:25:12;;;;;;;1.63;0.70;;;;;;;;;;5093015;28;20024;-42
2021/06/14 13:27:49;;;;;;;1.65;0.60;;;;;;;;;;5092920;28;20506;-46
2021/06/14 13:30:17;;;;;;;1.15;0.45;;;;;;;;;;5094037;28;20016;-47
2021/06/14 13:33:04;;;;;;;6.03;0.50;;;;;;;;;;5092128;28;20071;-46
2021/06/14 13:35:31;;;;;;;1.92;0.50;;;;;;;;;;5093875;28;20051;-46
2021/06/14 13:37:59;;;;;;;2.55;0.63;;;;;;;;;;5091215;28;20116;-38
2021/06/14 13:40:28;;;;;;;3.50;0.60;;;;;;;;;;5091362;28;20050;-42
2021/06/14 13:42:57;;;;;;;0.85;0.30;;;;;;;;;;5094099;28;20028;-37
2021/06/14 13:45:30;;;;;;;4.50;0.57;;;;;;;;;;5093931;28;20050;-37
2021/06/14 13:48:01;;;;;;;1.30;0.50;;;;;;;;;;5094469;28;20024;-44
2021/06/14 13:50:31;;;;;;;1.67;0.68;;;;;;;;;;5090373;28;20064;-43
2021/06/14 13:53:06;;;;;;;3.28;0.60;;;;;;;;;;5094088;28;20028;-41
2021/06/14 13:55:33;;;;;;;2.75;0.50;;;;;;;;;;5092614;28;20090;-42
2021/06/14 13:58:00;;;;;;;5.00;0.40;;;;;;;;;;5093790;28;20023;-42
2021/06/14 14:00:28;;;;;;;1.27;0.55;;;;;;;;;;5092656;28;20020;-39
2021/06/14 14:02:56;;;;;;;2.97;0.98;;;;;;;;;;5082186;28;20491;-39
2021/06/14 14:05:23;;;;;;;2.08;0.40;;;;;;;;;;5091458;28;20043;-39
2021/06/14 14:07:50;;;;;;;4.53;0.70;;;;;;;;;;5092751;28;20032;-39
2021/06/14 14:10:18;;;;;;;2.25;0.30;;;;;;;;;;5092251;28;20020;-39
2021/06/14 14:12:45;;;;;;;2.38;0.60;;;;;;;;;;5092714;28;20020;-40
2021/06/14 14:15:13;;;;;;;2.17;0.55;;;;;;;;;;5091257;28;20494;-40
2021/06/14 14:17:41;;;;;;;2.15;0.40;;;;;;;;;;5093025;28;20103;-39
2021/06/14 14:20:09;;;;;;;1.70;0.50;;;;;;;;;;5093287;28;20027;-40
2021/06/14 14:22:37;;;;;;;3.35;0.50;;;;;;;;;;5084578;28;20020;-40
2021/06/14 14:25:05;;;;;;;4.80;0.50;;;;;;;;;;5085621;28;20024;-39
2021/06/14 14:27:32;;;;;;;3.83;0.47;;;;;;;;;;5091327;28;20055;-39
2021/06/14 14:29:59;;;;;;;3.60;0.60;;;;;;;;;;5082148;28;20454;-39
2021/06/14 14:32:26;;;;;;;2.28;0.47;;;;;;;;;;5082681;28;20055;-39
2021/06/14 14:34:58;;;;;;;3.75;0.60;;;;;;;;;;5089676;28;20027;-39
2021/06/14 14:37:25;;;;;;;2.25;0.65;;;;;;;;;;5077407;28;20024;-39
2021/06/14 14:40:13;;;;;;;2.08;0.45;;;;;;;;;;5074098;28;20487;-39
2021/06/14 14:42:41;;;;;;;2.13;0.32;;;;;;;;;;5090960;28;20418;-37
2021/06/14 14:45:10;;;;;;;5.60;0.73;;;;;;;;;;5091077;28;20020;-36
2021/06/14 14:47:37;;;;;;;3.30;0.43;;;;;;;;;;5092183;28;20043;-43
2021/06/14 14:50:04;;;;;;;1.73;0.65;;;;;;;;;;5090447;28;20112;-39
2021/06/14 14:52:34;;;;;;;4.60;0.68;;;;;;;;;;5092089;28;20633;-36
2021/06/14 14:55:02;;;;;;;9.60;0.98;;;;;;;;;;5086660;28;20032;-36
2021/06/14 14:57:32;;;;;;;5.13;0.93;;;;;;;;;;5082120;28;20028;-40